Time;durP1;ratioP1;P1;durP2;ratioP2;P2;SDS_P1;SDS_P2;PMS_P1;PMS_P2;Temp;Humidity;BMP_temperature;BMP_pressure;BME280_temperature;BME280_humidity;BME280_pressure;Samples;Min_cycle;Max_cycle;Signal;HPM_P1;HPM_P2
2022/08/16 00:02:21;;;;;;;8.38;7.10;;;;;;;25.23;49.89;98893.81;5113815;28;20040;-61
2022/08/16 00:04:47;;;;;;;9.65;7.68;;;;;;;25.23;49.75;98901.09;5113660;28;20134;-61
2022/08/16 00:07:17;;;;;;;9.60;7.60;;;;;;;25.20;49.98;98896.09;5113650;28;20109;-60
2022/08/16 00:09:44;;;;;;;9.05;7.60;;;;;;;25.18;50.18;98898.16;5112402;28;20048;-61
2022/08/16 00:12:11;;;;;;;11.10;6.95;;;;;;;25.15;50.28;98898.59;5113406;28;20036;-60
2022/08/16 00:14:43;;;;;;;12.35;7.40;;;;;;;25.14;49.85;98892.34;5113661;28;20050;-61
2022/08/16 00:17:11;;;;;;;11.57;7.63;;;;;;;25.11;50.43;98888.22;5113462;28;20091;-61
2022/08/16 00:19:45;;;;;;;9.68;8.05;;;;;;;25.09;50.39;98884.88;5096087;28;20624;-63
2022/08/16 00:22:14;;;;;;;12.18;7.80;;;;;;;25.09;50.16;98884.88;5113309;28;20391;-64
2022/08/16 00:24:44;;;;;;;10.48;8.60;;;;;;;25.07;50.00;98886.97;5113264;28;20047;-61
2022/08/16 00:27:12;;;;;;;10.32;8.52;;;;;;;25.05;50.51;98891.75;5095266;28;20434;-63
2022/08/16 00:29:39;;;;;;;16.27;9.52;;;;;;;25.03;50.18;98885.72;5113207;28;20163;-60
2022/08/16 00:32:06;;;;;;;13.43;9.05;;;;;;;24.99;50.49;98881.75;5113204;28;20063;-61
2022/08/16 00:34:37;;;;;;;13.13;8.73;;;;;;;24.95;50.50;98884.03;5113113;28;20090;-61
2022/08/16 00:37:19;;;;;;;11.15;8.90;;;;;;;24.92;50.51;98883.59;5113280;28;20047;-62
2022/08/16 00:39:49;;;;;;;10.20;8.30;;;;;;;24.88;50.27;98893.94;5112879;28;20152;-61
2022/08/16 00:42:24;;;;;;;14.70;8.40;;;;;;;24.82;50.68;98884.78;5112961;28;20472;-62
2022/08/16 00:45:08;;;;;;;11.80;8.85;;;;;;;24.76;51.00;98888.31;5095734;28;20150;-63
2022/08/16 00:47:43;;;;;;;11.43;8.68;;;;;;;24.73;50.68;98881.47;5095352;28;20396;-62
2022/08/16 00:50:16;;;;;;;12.35;8.98;;;;;;;24.71;50.80;98888.91;5112781;28;20112;-63
2022/08/16 00:52:42;;;;;;;15.07;8.38;;;;;;;24.68;50.80;98883.94;5094646;28;20423;-61
2022/08/16 00:55:16;;;;;;;10.43;8.32;;;;;;;24.65;50.85;98894.25;5112794;28;20073;-61
2022/08/16 00:57:44;;;;;;;10.30;8.10;;;;;;;24.62;50.61;98889.31;5112591;28;20052;-60
2022/08/16 01:00:28;;;;;;;13.75;7.65;;;;;;;24.60;51.02;98893.00;5112586;28;20086;-61
2022/08/16 01:02:57;;;;;;;9.10;7.47;;;;;;;24.58;50.75;98899.63;5112548;28;20036;-61
2022/08/16 01:05:25;;;;;;;9.90;7.82;;;;;;;24.56;50.67;98902.50;5094431;28;20550;-61
2022/08/16 01:07:52;;;;;;;11.15;7.53;;;;;;;24.54;50.82;98899.19;5094271;28;20054;-62
2022/08/16 01:10:24;;;;;;;11.05;8.27;;;;;;;24.51;50.99;98896.91;5111952;28;20036;-61
2022/08/16 01:13:23;;;;;;;14.38;8.07;;;;;;;24.48;51.09;98894.59;5095408;28;20055;-61
2022/08/16 01:16:01;;;;;;;11.00;8.05;;;;;;;24.49;51.45;98890.91;5112474;28;20116;-61
2022/08/16 01:18:43;;;;;;;11.93;8.30;;;;;;;24.46;51.03;98896.66;5093853;28;20403;-61
2022/08/16 01:21:24;;;;;;;8.90;7.88;;;;;;;24.44;51.11;98899.56;5112541;28;20047;-63
2022/08/16 01:24:05;;;;;;;8.38;7.47;;;;;;;24.46;50.97;98904.75;5112185;28;20052;-60
2022/08/16 01:26:58;;;;;;;8.85;7.45;;;;;;;24.44;51.44;98909.47;5112239;28;20069;-61
2022/08/16 01:29:40;;;;;;;9.65;8.25;;;;;;;24.39;51.19;98909.25;5111993;28;20094;-61
2022/08/16 01:32:27;;;;;;;10.38;7.93;;;;;;;24.42;51.20;98912.38;5112074;28;20040;-61
2022/08/16 01:35:01;;;;;;;10.52;8.07;;;;;;;24.40;51.34;98909.06;5111942;28;20062;-61
2022/08/16 01:37:28;;;;;;;8.55;7.38;;;;;;;24.39;51.31;98906.56;5111798;28;20163;-61
2022/08/16 01:40:02;;;;;;;;;;;;;;;24.37;51.02;98908.63;5112000;28;20437;-60
2022/08/16 01:42:32;;;;;;;8.07;6.88;;;;;;;24.44;51.09;98906.78;5111746;28;19967;-61
2022/08/16 01:44:59;;;;;;;10.13;8.10;;;;;;;24.41;51.38;98904.50;5111729;28;20172;-61
2022/08/16 01:47:27;;;;;;;9.77;7.53;;;;;;;24.40;51.55;98902.88;5093547;28;20052;-60
2022/08/16 01:49:54;;;;;;;10.95;8.48;;;;;;;24.38;51.49;98904.91;5093325;28;20134;-62
2022/08/16 01:52:42;;;;;;;12.02;8.52;;;;;;;24.38;51.68;98908.44;5111777;28;20043;-61
2022/08/16 01:55:12;;;;;;;8.85;7.85;;;;;;;24.39;51.18;98906.56;5111457;28;20550;-60
2022/08/16 01:57:40;;;;;;;11.23;7.88;;;;;;;24.38;51.27;98903.06;5111584;28;20051;-62
2022/08/16 02:00:19;;;;;;;8.88;7.50;;;;;;;24.41;51.55;98912.59;5111140;28;20071;-60
2022/08/16 02:02:55;;;;;;;8.80;7.32;;;;;;;24.42;51.79;98907.00;5111414;28;20131;-61
2022/08/16 02:05:21;;;;;;;8.25;7.35;;;;;;;24.43;51.67;98907.81;5111560;28;20047;-62
2022/08/16 02:07:49;;;;;;;10.35;7.85;;;;;;;24.44;51.50;98907.63;5111435;28;20112;-60
2022/08/16 02:10:17;;;;;;;10.32;7.68;;;;;;;24.46;51.31;98907.44;5110895;28;20040;-61
2022/08/16 02:12:46;;;;;;;12.02;8.90;;;;;;;24.45;51.74;98908.47;5111298;28;20091;-61
2022/08/16 02:15:21;;;;;;;8.77;7.57;;;;;;;24.45;51.86;98913.84;5094016;28;20050;-61
2022/08/16 02:17:52;;;;;;;9.88;7.70;;;;;;;24.44;51.76;98910.31;5111315;28;20112;-63
2022/08/16 02:20:18;;;;;;;8.77;6.70;;;;;;;24.44;52.04;98907.63;5092787;28;20089;-60
2022/08/16 02:22:52;;;;;;;9.13;7.88;;;;;;;24.44;51.57;98904.94;5111268;28;20630;-61
2022/08/16 02:25:21;;;;;;;9.05;8.10;;;;;;;24.45;52.02;98905.78;5111083;28;20035;-60
2022/08/16 02:27:48;;;;;;;9.45;7.30;;;;;;;24.45;51.81;98905.78;5092973;28;20054;-61
2022/08/16 02:30:21;;;;;;;11.38;8.10;;;;;;;24.45;52.10;98905.78;5110956;28;20541;-62
2022/08/16 02:33:08;;;;;;;11.73;8.38;;;;;;;24.45;51.88;98903.91;5110792;28;20039;-62
2022/08/16 02:35:36;;;;;;;15.45;8.55;;;;;;;24.42;51.39;98896.25;5110793;28;20055;-60
2022/08/16 02:38:20;;;;;;;10.65;8.18;;;;;;;24.40;51.39;98902.88;5110855;28;20055;-60
2022/08/16 02:40:47;;;;;;;10.85;7.80;;;;;;;24.35;51.53;98900.75;5110957;28;20063;-61
2022/08/16 02:43:14;;;;;;;8.85;6.38;;;;;;;24.32;51.91;98904.69;5110985;28;20043;-60
2022/08/16 02:45:41;;;;;;;9.05;8.15;;;;;;;24.29;51.85;98905.06;5110786;28;20043;-63
2022/08/16 02:48:09;;;;;;;8.30;7.43;;;;;;;24.26;52.08;98908.16;5110528;28;20043;-61
2022/08/16 02:51:00;;;;;;;13.32;8.30;;;;;;;24.23;52.42;98903.19;5110994;28;20051;-61
2022/08/16 02:53:40;;;;;;;11.40;8.30;;;;;;;24.23;52.35;98903.19;5093952;28;20050;-61
2022/08/16 02:56:11;;;;;;;8.82;6.75;;;;;;;24.22;52.38;98900.69;5110862;28;20434;-61
2022/08/16 02:58:41;;;;;;;18.73;8.25;;;;;;;24.22;52.12;98904.19;5110474;28;20039;-61
2022/08/16 03:01:10;;;;;;;9.82;7.32;;;;;;;24.22;52.36;98906.06;5110846;28;20152;-61
2022/08/16 03:04:00;;;;;;;11.05;8.63;;;;;;;24.22;52.07;98906.88;5095806;28;20108;-60
2022/08/16 03:06:46;;;;;;;10.02;7.90;;;;;;;24.23;51.75;98902.34;5095498;28;20048;-62
2022/08/16 03:09:16;;;;;;;8.93;7.93;;;;;;;24.20;52.15;98909.78;5110419;28;20048;-60
2022/08/16 03:11:43;;;;;;;10.82;8.43;;;;;;;24.18;51.70;98898.38;5110555;28;20039;-60
2022/08/16 03:14:10;;;;;;;10.15;8.10;;;;;;;24.16;51.87;98910.38;5110369;28;20051;-63
2022/08/16 03:16:38;;;;;;;9.32;8.35;;;;;;;24.13;51.66;98910.75;5110545;28;20074;-61
2022/08/16 03:19:29;;;;;;;8.80;7.65;;;;;;;24.07;51.91;98907.00;5110475;28;20083;-62
2022/08/16 03:22:15;;;;;;;8.82;7.90;;;;;;;24.02;51.69;98910.25;5095216;28;20059;-62
2022/08/16 03:24:57;;;;;;;12.02;7.75;;;;;;;23.97;51.73;98904.66;5110606;28;20085;-63
2022/08/16 03:27:26;;;;;;;12.80;8.82;;;;;;;23.92;51.73;98901.72;5110406;28;20043;-61
2022/08/16 03:30:10;;;;;;;10.70;8.63;;;;;;;23.84;52.30;98901.88;5092775;28;20125;-61
2022/08/16 03:32:45;;;;;;;9.38;8.48;;;;;;;23.82;51.98;98907.44;5110625;28;20044;-61
2022/08/16 03:35:14;;;;;;;10.55;8.00;;;;;;;23.79;52.04;98905.97;5092464;28;20039;-60
2022/08/16 03:37:44;;;;;;;9.82;8.07;;;;;;;23.77;51.94;98904.50;5092671;28;20086;-62
2022/08/16 03:40:33;;;;;;;9.52;7.70;;;;;;;23.72;52.38;98907.75;5094662;28;20040;-62
2022/08/16 03:43:08;;;;;;;8.75;7.82;;;;;;;23.66;52.10;98898.63;5092270;28;20589;-61
2022/08/16 03:45:47;;;;;;;9.48;8.48;;;;;;;23.66;52.06;98898.63;5114087;28;20051;-63
2022/08/16 03:48:14;;;;;;;12.90;8.20;;;;;;;23.64;52.07;98894.47;5113930;28;20044;-60
2022/08/16 03:50:43;;;;;;;10.88;8.05;;;;;;;23.62;52.27;98891.16;5096157;28;20403;-61
2022/08/16 03:53:26;;;;;;;9.75;8.23;;;;;;;23.60;52.41;98888.66;5114173;28;20037;-61
2022/08/16 03:56:06;;;;;;;9.57;8.07;;;;;;;23.62;52.14;98896.53;5097443;28;20083;-61
2022/08/16 03:58:45;;;;;;;13.15;8.20;;;;;;;23.62;52.46;98900.03;5097392;28;20055;-61
2022/08/16 04:01:13;;;;;;;10.23;8.15;;;;;;;23.61;52.01;98900.22;5113652;28;20054;-61
2022/08/16 04:03:41;;;;;;;11.27;8.63;;;;;;;23.60;52.57;98907.47;5113835;28;20243;-60
2022/08/16 04:06:09;;;;;;;10.30;8.60;;;;;;;23.60;52.36;98904.78;5113509;28;20039;-60
2022/08/16 04:08:36;;;;;;;11.80;9.00;;;;;;;23.59;52.15;98907.66;5113337;28;20439;-61
2022/08/16 04:11:05;;;;;;;13.27;9.43;;;;;;;23.57;52.37;98899.78;5113586;28;20047;-62
2022/08/16 04:13:32;;;;;;;12.50;9.57;;;;;;;23.56;52.44;98903.50;5095435;28;20080;-62
2022/08/16 04:16:19;;;;;;;11.60;8.82;;;;;;;23.53;52.63;98902.03;5113491;28;20092;-61
2022/08/16 04:18:53;;;;;;;10.63;8.98;;;;;;;23.50;52.57;98905.09;5096221;28;20044;-61
2022/08/16 04:21:28;;;;;;;9.38;8.30;;;;;;;23.49;52.74;98906.13;5113447;28;20051;-61
2022/08/16 04:23:55;;;;;;;9.70;8.68;;;;;;;23.48;52.52;98909.00;5113474;28;20055;-61
2022/08/16 04:26:21;;;;;;;10.77;9.35;;;;;;;23.46;52.56;98906.50;5113628;28;20093;-61
2022/08/16 04:28:49;;;;;;;9.88;8.73;;;;;;;23.45;52.87;98904.03;5113169;28;20044;-62
2022/08/16 04:31:35;;;;;;;12.27;8.85;;;;;;;23.45;52.69;98907.53;5113514;28;20092;-60
2022/08/16 04:34:02;;;;;;;10.90;8.80;;;;;;;23.44;52.64;98911.25;5113119;28;20383;-62
2022/08/16 04:36:34;;;;;;;13.23;8.60;;;;;;;23.46;52.88;98913.72;5113033;28;20044;-61
2022/08/16 04:39:02;;;;;;;9.85;8.85;;;;;;;23.43;52.65;98918.47;5112754;28;20671;-61
2022/08/16 04:41:30;;;;;;;11.68;9.45;;;;;;;23.44;52.81;98922.00;5113396;28;20035;-61
2022/08/16 04:44:02;;;;;;;11.52;8.57;;;;;;;23.42;52.75;98921.34;5113045;28;20082;-60
2022/08/16 04:46:49;;;;;;;11.73;8.95;;;;;;;23.44;52.80;98922.00;5113160;28;20152;-60
2022/08/16 04:49:28;;;;;;;10.45;8.45;;;;;;;23.43;53.04;98928.38;5112856;28;20066;-64
2022/08/16 04:52:09;;;;;;;9.50;8.48;;;;;;;23.45;52.69;98929.03;5112871;28;20051;-63
2022/08/16 04:54:56;;;;;;;9.13;8.15;;;;;;;23.44;52.70;98924.69;5112289;28;20075;-62
2022/08/16 04:57:22;;;;;;;10.13;8.40;;;;;;;23.43;52.70;98926.53;5112252;28;20484;-62
2022/08/16 04:59:55;;;;;;;9.30;7.60;;;;;;;23.45;52.69;98929.03;5112189;28;20048;-63
2022/08/16 05:02:21;;;;;;;10.38;8.70;;;;;;;23.45;52.99;98931.72;5112594;28;20036;-61
2022/08/16 05:05:10;;;;;;;11.05;7.78;;;;;;;23.47;53.07;98931.53;5112663;28;20086;-64
2022/08/16 05:07:44;;;;;;;8.23;7.43;;;;;;;23.49;52.99;98930.31;5112596;28;20047;-62
2022/08/16 05:10:26;;;;;;;9.43;7.65;;;;;;;23.52;53.01;98940.66;5096426;28;20035;-62
2022/08/16 05:12:56;;;;;;;12.95;8.95;;;;;;;23.53;52.91;98930.75;5094521;28;20531;-61
2022/08/16 05:15:23;;;;;;;8.88;7.97;;;;;;;23.55;52.47;98934.09;5112334;28;20051;-63
2022/08/16 05:17:50;;;;;;;8.48;7.65;;;;;;;23.55;52.50;98948.34;5112483;28;20046;-61
2022/08/16 05:20:26;;;;;;;10.32;7.85;;;;;;;23.56;52.51;98930.38;5112108;28;20046;-63
2022/08/16 05:23:13;;;;;;;12.40;7.60;;;;;;;23.56;52.42;98923.13;5097330;28;20081;-62
2022/08/16 05:25:41;;;;;;;8.65;7.70;;;;;;;23.56;52.62;98933.88;5112283;28;20055;-61
2022/08/16 05:28:16;;;;;;;8.85;6.80;;;;;;;23.55;52.94;98926.84;5094743;28;20127;-61
2022/08/16 05:30:44;;;;;;;9.43;7.30;;;;;;;23.55;52.96;98924.16;5093870;28;20040;-62
2022/08/16 05:33:15;;;;;;;8.95;7.60;;;;;;;23.55;52.46;98934.91;5094680;28;20047;-60
2022/08/16 05:35:44;;;;;;;9.20;7.85;;;;;;;23.57;52.66;98942.78;5111979;28;20043;-61
2022/08/16 05:38:26;;;;;;;10.43;7.65;;;;;;;23.56;52.66;98947.31;5111668;28;20544;-62
2022/08/16 05:41:05;;;;;;;9.38;8.05;;;;;;;23.55;52.95;98944.84;5095552;28;20055;-61
2022/08/16 05:43:32;;;;;;;9.25;7.80;;;;;;;23.53;52.96;98953.09;5111973;28;20043;-61
2022/08/16 05:46:13;;;;;;;8.32;7.38;;;;;;;23.51;53.10;98956.97;5111813;28;20047;-61
2022/08/16 05:48:58;;;;;;;8.73;7.82;;;;;;;23.48;53.18;98962.72;5111435;28;20036;-61
2022/08/16 05:51:35;;;;;;;10.77;8.02;;;;;;;23.45;53.41;98960.41;5111667;28;20458;-61
2022/08/16 05:54:11;;;;;;;9.50;7.57;;;;;;;23.41;53.25;98962.66;5111634;28;20424;-61
2022/08/16 05:56:41;;;;;;;9.88;7.70;;;;;;;23.42;53.34;98967.00;5093679;28;20065;-61
2022/08/16 05:59:09;;;;;;;8.90;7.10;;;;;;;23.44;53.16;98964.97;5092230;28;20086;-62
2022/08/16 06:01:37;;;;;;;9.85;7.22;;;;;;;23.43;53.62;98960.59;5111312;28;20039;-62
2022/08/16 06:04:06;;;;;;;9.32;7.13;;;;;;;23.43;53.61;98958.75;5093324;28;20048;-62
2022/08/16 06:06:53;;;;;;;9.88;7.72;;;;;;;23.47;53.80;98969.13;5110759;28;20039;-66
2022/08/16 06:09:24;;;;;;;8.05;7.25;;;;;;;23.49;53.95;98973.28;5110834;28;20052;-63
2022/08/16 06:12:09;;;;;;;8.35;7.55;;;;;;;23.51;53.60;98984.66;5111090;28;20047;-62
2022/08/16 06:14:36;;;;;;;9.10;7.38;;;;;;;23.54;53.86;98975.38;5093358;28;20097;-62
2022/08/16 06:17:05;;;;;;;9.13;7.10;;;;;;;23.55;53.54;98982.44;5111347;28;20048;-62
2022/08/16 06:19:32;;;;;;;8.88;7.93;;;;;;;23.55;53.48;98985.94;5092924;28;20044;-61
2022/08/16 06:22:01;;;;;;;8.90;7.25;;;;;;;23.57;53.52;98985.75;5111457;28;20056;-62
2022/08/16 06:24:27;;;;;;;10.80;7.70;;;;;;;23.57;53.50;98991.13;5110814;28;20054;-67
2022/08/16 06:27:16;;;;;;;8.23;7.32;;;;;;;23.58;53.51;98997.34;5111079;28;20044;-62
2022/08/16 06:29:43;;;;;;;10.32;7.65;;;;;;;23.56;53.62;98989.47;5092591;28;20468;-61
2022/08/16 06:32:15;;;;;;;7.65;6.85;;;;;;;23.54;53.46;98992.34;5111201;28;20046;-63
2022/08/16 06:34:54;;;;;;;8.20;7.38;;;;;;;23.52;53.58;98986.31;5110846;28;20044;-63
2022/08/16 06:37:28;;;;;;;8.85;7.72;;;;;;;23.50;53.71;98998.28;5093944;28;20043;-63
2022/08/16 06:40:04;;;;;;;8.13;7.30;;;;;;;23.45;53.69;99004.22;5110732;28;20487;-62
2022/08/16 06:42:41;;;;;;;11.70;7.95;;;;;;;23.41;53.47;98997.56;5094489;28;20047;-61
2022/08/16 06:45:14;;;;;;;9.05;7.60;;;;;;;23.37;53.75;99001.66;5110952;28;20046;-60
2022/08/16 06:47:41;;;;;;;8.90;7.65;;;;;;;23.33;53.79;99008.41;5110256;28;20059;-62
2022/08/16 06:50:21;;;;;;;9.35;7.82;;;;;;;23.28;53.82;99009.81;5110775;28;20063;-62
2022/08/16 06:52:56;;;;;;;10.02;7.85;;;;;;;23.25;54.15;99006.66;5110810;28;20044;-61
2022/08/16 06:55:27;;;;;;;9.75;7.95;;;;;;;23.22;54.12;99015.09;5110683;28;20051;-62
2022/08/16 06:58:01;;;;;;;8.35;7.45;;;;;;;23.20;54.41;99019.81;5093450;28;20039;-61
2022/08/16 07:00:47;;;;;;;10.32;7.93;;;;;;;23.18;54.19;99020.03;5095628;28;20047;-63
2022/08/16 07:03:14;;;;;;;11.93;7.32;;;;;;;23.16;54.62;99022.88;5110608;28;20051;-61
2022/08/16 07:05:55;;;;;;;8.23;7.40;;;;;;;23.17;54.85;99019.19;5110795;28;20075;-61
2022/08/16 07:08:24;;;;;;;9.27;7.72;;;;;;;23.19;54.92;99021.69;5092372;28;20044;-63
2022/08/16 07:10:53;;;;;;;10.38;8.32;;;;;;;23.22;54.87;99018.63;5092867;28;20551;-63
2022/08/16 07:13:20;;;;;;;10.98;8.60;;;;;;;23.26;55.10;99022.59;5110976;28;20040;-61
2022/08/16 07:16:13;;;;;;;8.35;7.40;;;;;;;23.32;54.89;99020.16;5110615;28;20437;-62
2022/08/16 07:18:42;;;;;;;11.07;7.57;;;;;;;23.38;54.99;99024.81;5112940;28;20096;-61
2022/08/16 07:21:27;;;;;;;11.82;7.97;;;;;;;23.46;54.94;99030.06;5099324;28;20055;-62
2022/08/16 07:24:12;;;;;;;9.68;7.63;;;;;;;23.53;55.06;99030.97;5114569;28;20079;-61
2022/08/16 07:26:57;;;;;;;10.75;7.35;;;;;;;23.63;54.96;99035.19;5114409;28;20138;-61
2022/08/16 07:29:28;;;;;;;9.23;8.32;;;;;;;23.71;54.50;99034.22;5114014;28;20070;-62
2022/08/16 07:31:57;;;;;;;10.52;8.20;;;;;;;23.78;54.34;99041.31;5096585;28;20071;-62
2022/08/16 07:34:27;;;;;;;9.35;8.18;;;;;;;23.82;54.14;99039.91;5114408;28;20441;-61
2022/08/16 07:37:14;;;;;;;12.13;7.97;;;;;;;23.89;54.44;99031.09;5099301;28;20048;-61
2022/08/16 07:39:40;;;;;;;9.85;7.82;;;;;;;23.94;54.15;99025.97;5113916;28;20483;-62
2022/08/16 07:42:10;;;;;;;10.00;7.50;;;;;;;23.98;54.15;99032.63;5114141;28;20079;-62
2022/08/16 07:44:52;;;;;;;10.65;8.10;;;;;;;24.06;54.14;99037.03;5098521;28;20051;-62
2022/08/16 07:47:20;;;;;;;7.82;7.03;;;;;;;24.13;54.38;99031.75;5096156;28;20729;-63
2022/08/16 07:49:56;;;;;;;8.25;7.45;;;;;;;24.20;54.09;99036.16;5113764;28;20491;-61
2022/08/16 07:52:24;;;;;;;11.27;9.07;;;;;;;24.26;54.00;99041.78;5114138;28;20128;-62
2022/08/16 07:54:56;;;;;;;9.73;7.70;;;;;;;24.33;53.89;99037.28;5113870;28;20093;-62
2022/08/16 07:57:23;;;;;;;10.43;7.20;;;;;;;24.39;53.98;99043.72;5095937;28;20480;-61
2022/08/16 07:59:51;;;;;;;9.02;7.82;;;;;;;24.47;53.67;99043.59;5113644;28;20040;-61
2022/08/16 08:02:19;;;;;;;9.90;7.20;;;;;;;24.53;53.96;99041.97;5113746;28;20074;-63
2022/08/16 08:04:47;;;;;;;8.55;7.30;;;;;;;24.60;53.94;99042.84;5095619;28;20499;-63
2022/08/16 08:07:14;;;;;;;9.10;8.10;;;;;;;24.69;53.59;99046.22;5113860;28;20126;-60
2022/08/16 08:09:42;;;;;;;9.85;7.65;;;;;;;24.77;53.22;99047.91;5113519;28;20048;-61
2022/08/16 08:12:10;;;;;;;10.35;7.63;;;;;;;24.84;53.52;99052.34;5113677;28;20131;-61
2022/08/16 08:14:57;;;;;;;8.27;6.93;;;;;;;24.93;53.02;99060.25;5098530;28;20437;-61
2022/08/16 08:17:24;;;;;;;9.60;6.60;;;;;;;25.00;53.03;99058.41;5113304;28;20062;-60
2022/08/16 08:20:12;;;;;;;9.05;6.47;;;;;;;25.09;53.14;99049.13;5097914;28;20052;-63
2022/08/16 08:22:50;;;;;;;8.07;5.82;;;;;;;25.19;53.07;99051.47;5113517;28;20112;-62
2022/08/16 08:25:17;;;;;;;7.60;6.55;;;;;;;25.29;52.81;99048.38;5113318;28;20054;-63
2022/08/16 08:27:44;;;;;;;10.32;7.45;;;;;;;25.37;52.57;99048.22;5113143;28;20476;-61
2022/08/16 08:30:12;;;;;;;9.75;6.30;;;;;;;25.49;52.60;99055.72;5112562;28;20112;-62
2022/08/16 08:32:59;;;;;;;6.32;5.72;;;;;;;25.61;52.25;99056.78;5113155;28;20079;-62
2022/08/16 08:35:27;;;;;;;9.27;6.28;;;;;;;25.73;52.25;99059.75;5113096;28;20047;-61
2022/08/16 08:37:54;;;;;;;7.53;5.20;;;;;;;25.85;51.68;99064.53;5094976;28;20092;-62
2022/08/16 08:40:23;;;;;;;7.50;5.30;;;;;;;25.98;51.17;99063.72;5112770;28;20636;-62
2022/08/16 08:42:57;;;;;;;6.93;5.45;;;;;;;26.07;50.58;99057.09;5095337;28;20047;-62
2022/08/16 08:45:39;;;;;;;5.25;4.75;;;;;;;26.21;50.58;99059.78;5096885;28;20399;-63
2022/08/16 08:48:18;;;;;;;6.25;5.38;;;;;;;26.30;50.58;99050.47;5112749;28;20047;-63
2022/08/16 08:51:03;;;;;;;5.87;4.30;;;;;;;26.44;50.23;99061.25;5097228;28;20048;-61
2022/08/16 08:53:31;;;;;;;5.90;4.80;;;;;;;26.54;49.34;99061.66;5094740;28;20289;-62
2022/08/16 08:55:59;;;;;;;7.35;4.82;;;;;;;26.64;49.05;99062.06;5112759;28;20101;-61
2022/08/16 08:58:46;;;;;;;7.53;5.07;;;;;;;26.77;49.16;99071.16;5097367;28;20071;-62
2022/08/16 09:01:36;;;;;;;6.18;4.93;;;;;;;26.84;48.77;99072.00;5112508;28;20040;-61
2022/08/16 09:04:21;;;;;;;7.10;4.90;;;;;;;27.00;48.71;99069.88;5097280;28;20040;-63
2022/08/16 09:06:49;;;;;;;6.45;4.80;;;;;;;27.11;48.71;99071.94;5112560;28;20142;-62
2022/08/16 09:09:15;;;;;;;6.47;5.03;;;;;;;27.21;48.20;99074.16;5112373;28;20048;-63
2022/08/16 09:11:44;;;;;;;8.40;4.28;;;;;;;27.31;48.50;99068.31;5112417;28;20429;-61
2022/08/16 09:14:19;;;;;;;8.15;5.13;;;;;;;27.41;47.78;99065.16;5095574;28;20051;-62
2022/08/16 09:16:51;;;;;;;8.43;4.38;;;;;;;27.53;47.39;99066.13;5112344;28;20055;-62
2022/08/16 09:19:36;;;;;;;6.97;4.68;;;;;;;27.64;46.91;99072.75;5096858;28;20047;-62
2022/08/16 09:22:08;;;;;;;5.30;4.13;;;;;;;27.73;47.06;99067.09;5112193;28;20044;-62
2022/08/16 09:24:45;;;;;;;6.75;4.70;;;;;;;27.83;46.93;99070.97;5095902;28;20078;-61
2022/08/16 09:27:21;;;;;;;7.60;4.00;;;;;;;27.92;46.71;99076.94;5112434;28;20062;-62
2022/08/16 09:29:49;;;;;;;5.72;4.25;;;;;;;28.01;46.64;99069.41;5093926;28;20431;-61
2022/08/16 09:32:29;;;;;;;6.72;4.50;;;;;;;28.11;46.16;99071.63;5112027;28;20122;-60
2022/08/16 09:34:58;;;;;;;7.05;4.28;;;;;;;28.19;45.88;99076.72;5111920;28;20043;-62
2022/08/16 09:37:27;;;;;;;8.98;4.15;;;;;;;28.29;46.15;99075.47;5111990;28;20043;-61
2022/08/16 09:39:56;;;;;;;5.35;4.07;;;;;;;28.38;46.21;99068.72;5093920;28;20479;-62
2022/08/16 09:42:29;;;;;;;8.13;4.55;;;;;;;28.49;45.97;99072.56;5110797;28;20036;-62
2022/08/16 09:45:15;;;;;;;5.60;3.55;;;;;;;28.60;45.89;99077.22;5096612;28;20548;-61
2022/08/16 09:47:44;;;;;;;6.25;4.25;;;;;;;28.71;45.88;99080.28;5111941;28;20130;-61
2022/08/16 09:50:25;;;;;;;6.50;3.95;;;;;;;28.82;45.29;99078.69;5111561;28;20043;-61
2022/08/16 09:53:08;;;;;;;5.57;3.72;;;;;;;28.94;45.36;99073.38;5095486;28;20434;-61
2022/08/16 09:55:45;;;;;;;6.63;3.53;;;;;;;29.04;44.07;99070.97;5111566;28;20079;-62
2022/08/16 09:58:16;;;;;;;5.35;3.50;;;;;;;29.15;44.57;99077.50;5111458;28;20066;-61
2022/08/16 10:01:03;;;;;;;4.85;3.50;;;;;;;29.27;44.13;99072.97;5111676;28;20043;-63
2022/08/16 10:03:30;;;;;;;5.30;3.33;;;;;;;29.36;43.59;99073.50;5111367;28;20087;-61
2022/08/16 10:05:57;;;;;;;5.18;3.78;;;;;;;29.46;43.11;99077.56;5111867;28;20055;-62
2022/08/16 10:08:23;;;;;;;5.68;4.00;;;;;;;29.54;43.05;99073.72;5111323;28;20108;-62
2022/08/16 10:13:38;;;;;;;5.47;4.03;;;;;;;29.64;42.50;99082.16;5111336;28;20039;-63
2022/08/16 10:16:07;;;;;;;5.80;3.78;;;;;;;29.70;43.26;99073.06;5111113;28;20486;-62
2022/08/16 10:18:35;;;;;;;4.65;3.50;;;;;;;29.81;43.09;99076.03;5111033;28;20050;-61
2022/08/16 10:21:22;;;;;;;4.13;3.40;;;;;;;29.94;43.34;99072.31;5111095;28;20039;-62
2022/08/16 10:23:51;;;;;;;6.97;3.55;;;;;;;30.06;43.01;99075.88;5111398;28;20538;-64
2022/08/16 10:26:23;;;;;;;6.97;3.40;;;;;;;30.23;42.71;99073.31;5111038;28;20055;-61
2022/08/16 10:29:10;;;;;;;7.70;3.80;;;;;;;30.40;42.66;99078.91;5111161;28;20047;-63
2022/08/16 10:31:46;;;;;;;7.32;3.55;;;;;;;30.53;41.87;99079.69;5094160;28;20481;-63
2022/08/16 10:34:19;;;;;;;7.07;3.40;;;;;;;30.62;41.60;99075.59;5111154;28;20047;-63
2022/08/16 10:37:01;;;;;;;6.13;3.63;;;;;;;30.69;41.60;99078.19;5094491;28;20097;-62
2022/08/16 10:39:29;;;;;;;4.90;3.03;;;;;;;30.74;41.30;99077.47;5093052;28;20047;-62
2022/08/16 10:42:08;;;;;;;7.63;3.47;;;;;;;30.81;40.83;99070.03;5111039;28;20044;-61
2022/08/16 10:44:38;;;;;;;4.80;2.95;;;;;;;30.88;41.31;99076.19;5093352;28;20044;-62
2022/08/16 10:47:08;;;;;;;4.78;3.00;;;;;;;30.98;40.65;99080.19;5110954;28;20081;-61
2022/08/16 10:49:38;;;;;;;5.88;2.88;;;;;;;31.11;40.81;99081.78;5110538;28;20058;-61
2022/08/16 10:52:05;;;;;;;6.32;2.80;;;;;;;31.26;40.11;99090.28;5111085;28;20043;-61
2022/08/16 10:54:44;;;;;;;4.78;3.17;;;;;;;31.44;39.75;99085.75;5115360;28;20108;-62
2022/08/16 10:57:31;;;;;;;4.28;3.03;;;;;;;31.64;39.54;99079.88;5114876;28;20075;-63
2022/08/16 10:59:58;;;;;;;4.10;2.90;;;;;;;31.87;39.09;99088.16;5114743;28;20052;-62
2022/08/16 11:02:27;;;;;;;4.22;2.78;;;;;;;32.12;39.30;99082.34;5115026;28;20061;-61
2022/08/16 11:05:16;;;;;;;4.38;3.10;;;;;;;32.49;38.74;99083.75;5115297;28;20159;-62
2022/08/16 11:07:47;;;;;;;3.85;2.75;;;;;;;32.87;37.25;99082.13;5096759;28;20051;-61
2022/08/16 11:10:27;;;;;;;3.22;2.53;;;;;;;33.32;37.65;99092.19;5097657;28;20043;-62
2022/08/16 11:13:21;;;;;;;3.83;2.60;;;;;;;33.87;36.32;99087.63;5099844;28;20109;-63
2022/08/16 11:16:08;;;;;;;4.30;2.63;;;;;;;34.42;36.23;99079.34;5099653;28;20120;-63
2022/08/16 11:18:52;;;;;;;3.95;2.20;;;;;;;34.95;35.58;99083.22;5099528;28;20083;-62
2022/08/16 11:21:36;;;;;;;4.88;2.72;;;;;;;35.44;34.34;99087.53;5115043;28;20475;-62
2022/08/16 11:24:22;;;;;;;4.13;2.35;;;;;;;35.86;33.44;99091.16;5114883;28;20079;-62
2022/08/16 11:27:20;;;;;;;3.70;2.53;;;;;;;36.25;32.73;99092.56;5114707;28;20419;-64
2022/08/16 11:29:51;;;;;;;;;;;;;;;36.57;34.77;99087.00;5115253;28;20035;-63
2022/08/16 11:32:20;;;;;;;3.20;1.70;;;;;;;37.08;32.23;99079.75;5096826;28;19916;-62
2022/08/16 11:34:57;;;;;;;3.45;2.05;;;;;;;37.47;31.89;99086.41;5098145;28;20454;-63
2022/08/16 11:37:51;;;;;;;2.03;1.83;;;;;;;37.87;30.91;99097.44;5114837;28;20044;-62
2022/08/16 11:40:45;;;;;;;3.25;2.38;;;;;;;38.25;29.57;99097.72;5099768;28;20052;-63
2022/08/16 11:43:21;;;;;;;2.30;1.90;;;;;;;38.52;29.38;99088.09;5097332;28;20058;-63
2022/08/16 11:45:49;;;;;;;3.28;1.92;;;;;;;38.76;29.34;99092.00;5096253;28;20044;-62
2022/08/16 11:48:21;;;;;;;2.45;1.83;;;;;;;39.00;29.08;99100.22;5114660;28;20086;-63
2022/08/16 11:50:48;;;;;;;2.17;1.98;;;;;;;39.17;27.41;99090.69;5114466;28;20051;-62
2022/08/16 11:53:15;;;;;;;2.78;1.92;;;;;;;39.12;26.75;99099.81;5114224;28;20541;-63
2022/08/16 11:55:43;;;;;;;3.08;2.10;;;;;;;38.93;26.93;99097.84;5095884;28;20046;-62
2022/08/16 11:58:10;;;;;;;4.40;1.95;;;;;;;38.74;26.67;99094.19;5113880;28;20516;-62
2022/08/16 12:00:42;;;;;;;3.35;2.10;;;;;;;38.56;26.63;99089.16;5114224;28;20050;-63
2022/08/16 12:03:18;;;;;;;5.47;1.90;;;;;;;38.43;26.91;99085.16;5114367;28;20096;-62
2022/08/16 12:05:45;;;;;;;3.53;2.20;;;;;;;38.36;27.35;99089.34;5113049;28;20127;-63
2022/08/16 12:08:20;;;;;;;4.28;2.05;;;;;;;38.38;27.22;99089.91;5096943;28;20101;-65